Tyndall Air Force Base
KPAM : now visible

Airfield :











YOU CAN JOIN US ON...

 
LOGIN :

Register | Disclaimer

   EN    FR    IT 

 









Legend :    VFR   Marginal VFR   IFR   Intensive IFR   Very Intensive IFR
Visi :
Ceiling :
>= 8 km
>= 3000ft
5 to 8 km
1000 to 3000 ft
1500m to 5 km
500 to 1000 ft
800 to 1500m
200 to 500 ft
< 800m
< 200 ft
Symbols :   Thunderstorms  Fog  Heavy snow  Heavy precipitations  Wind > 20 kt






- Airport Elevation : 17 ft


KPAM - Tyndall Air Force Base

CURRENT METAR :
  • 141956Z AUTO 19008KT 10SM SCT020 30/25 A2994 RMK AO2 SLP142 T03010251 $

EXPIRED METARs :
  • 141856Z AUTO 17011KT 10SM FEW150 FEW180 SCT200 29/25 A2995 RMK AO2 SLP145 T02890248 $
  • 141756Z AUTO 17008KT 10SM FEW014 SCT150 BKN170 BKN200 28/25 A2997 RMK AO2 SLP152 60028 T02840246 10287 20235 58008 $

TAF TAF KPAM
Valid from the 14 at 18:00 until the 16 at 00:00 UTC


141800Z 1418/1600 25006KT 9999 SCT025 BKN040 QNH2988INS
BECMG 1502/1503 25006KT 9999 SCT040 QNH2989INS
BECMG 1510/1511 23008KT 9000 -SHRA BKN040 QNH2999INS
TEMPO 1512/1516 24015G20KT 8000 -TSRA BKN025CB OVC040
BECMG 1516/1517 24010KT 9999 NSW SCT030 BKN050 QNH2999INS TX29/1421Z TN24/1511Z
KZJX FIR / North America



MET'MAP, your aeronautical weather chart ! - Copyright ORBIFLY December 2007 - Disclaimer

ORBIFLY MET'MAP TEAM :

Programming & Development : Alexandra Zaïnal
Concept & original design : Baudouin d'Aumeries
Assistance for programming : Marc-Olivier Méhu
Technical & hardware support : Manuel Goepfert

Contact : metmap@orbifly.com




SOURCES & CREDITS :

   NOAA       Earth
Advisory